Time;durP1;ratioP1;P1;durP2;ratioP2;P2;SDS_P1;SDS_P2;PMS_P1;PMS_P2;Temp;Humidity;BMP_temperature;BMP_pressure;BME280_temperature;BME280_humidity;BME280_pressure;Samples;Min_cycle;Max_cycle;Signal;HPM_P1;HPM_P2
2023/12/19 00:00:32;;;;;;;;;4.00;4.00;;;;;;;;111926;1249;19602;-32
2023/12/19 00:03:20;;;;;;;;;4.00;4.00;;;;;;;;112073;1263;23665;-32
2023/12/19 00:05:47;;;;;;;;;7.00;3.00;;;;;;;;111924;1264;18725;-32
2023/12/19 00:08:15;;;;;;;;;2.00;2.00;;;;;;;;112045;1263;19573;-32
2023/12/19 00:10:43;;;;;;;;;5.00;5.00;;;;;;;;111929;1248;21553;-32
2023/12/19 00:13:10;;;;;;;;;4.00;2.00;;;;;;;;112032;1263;18662;-32
2023/12/19 00:15:37;;;;;;;;;4.00;4.00;;;;;;;;111962;1249;19706;-32
2023/12/19 00:18:05;;;;;;;;;2.00;2.00;;;;;;;;112047;1263;20218;-32
2023/12/19 00:20:32;;;;;;;;;2.00;2.00;;;;;;;;111912;1249;19494;-32
2023/12/19 00:23:00;;;;;;;;;2.00;2.00;;;;;;;;112066;1249;18475;-32
2023/12/19 00:25:29;;;;;;;;;4.00;4.00;;;;;;;;111955;1263;19181;-31
2023/12/19 00:27:58;;;;;;;;;2.00;2.00;;;;;;;;111951;1263;18890;-32
2023/12/19 00:30:26;;;;;;;;;4.00;4.00;;;;;;;;112025;1264;18556;-31
2023/12/19 00:32:54;;;;;;;;;4.00;4.00;;;;;;;;111902;1264;20276;-32
2023/12/19 00:35:21;;;;;;;;;5.00;4.00;;;;;;;;111836;1249;18757;-32
2023/12/19 00:37:49;;;;;;;;;2.00;2.00;;;;;;;;111772;1264;19636;-32
2023/12/19 00:40:16;;;;;;;;;4.00;2.00;;;;;;;;111851;1249;22249;-32
2023/12/19 00:42:43;;;;;;;;;2.00;2.00;;;;;;;;111778;1264;18956;-32
2023/12/19 00:45:11;;;;;;;;;4.00;4.00;;;;;;;;111867;1264;18547;-32
2023/12/19 00:47:38;;;;;;;;;3.00;3.00;;;;;;;;111819;1264;19302;-32
2023/12/19 00:50:06;;;;;;;;;2.00;2.00;;;;;;;;111866;1257;19553;-32
2023/12/19 00:52:33;;;;;;;;;3.00;3.00;;;;;;;;111763;1264;20184;-32
2023/12/19 00:55:01;;;;;;;;;3.00;2.00;;;;;;;;111848;1264;19040;-32
2023/12/19 00:57:28;;;;;;;;;3.00;2.00;;;;;;;;111821;1264;18712;-31
2023/12/19 00:59:56;;;;;;;;;4.00;2.00;;;;;;;;111857;1264;19583;-32
2023/12/19 01:02:24;;;;;;;;;2.00;2.00;;;;;;;;111830;1264;20373;-32
2023/12/19 01:04:51;;;;;;;;;2.00;2.00;;;;;;;;111840;1264;18870;-31
2023/12/19 01:07:18;;;;;;;;;2.00;2.00;;;;;;;;111788;1265;21596;-31
2023/12/19 01:09:46;;;;;;;;;4.00;4.00;;;;;;;;111871;1264;20353;-31
2023/12/19 01:12:13;;;;;;;;;1.00;1.00;;;;;;;;111818;1264;18973;-32
2023/12/19 01:14:41;;;;;;;;;4.00;4.00;;;;;;;;111850;1265;18701;-30
2023/12/19 01:17:08;;;;;;;;;4.00;4.00;;;;;;;;111802;1249;20422;-31
2023/12/19 01:19:36;;;;;;;;;1.00;1.00;;;;;;;;111887;1264;18745;-31
2023/12/19 01:22:03;;;;;;;;;2.00;2.00;;;;;;;;111814;1265;20686;-31
2023/12/19 01:24:31;;;;;;;;;2.00;2.00;;;;;;;;111850;1257;19026;-30
2023/12/19 01:26:58;;;;;;;;;2.00;2.00;;;;;;;;111820;1264;18856;-31
2023/12/19 01:29:26;;;;;;;;;2.00;2.00;;;;;;;;111830;1264;19631;-30
2023/12/19 01:31:53;;;;;;;;;2.00;2.00;;;;;;;;111845;1257;19272;-30
2023/12/19 01:34:21;;;;;;;;;2.00;2.00;;;;;;;;111736;1257;18753;-30
2023/12/19 01:36:49;;;;;;;;;2.00;2.00;;;;;;;;111843;1264;18513;-30
2023/12/19 01:39:16;;;;;;;;;2.00;2.00;;;;;;;;111526;1250;359197;-31
2023/12/19 01:41:43;;;;;;;;;2.00;2.00;;;;;;;;111820;1264;18783;-31
2023/12/19 01:44:11;;;;;;;;;2.00;2.00;;;;;;;;111794;1265;19801;-31
2023/12/19 01:46:38;;;;;;;;;2.00;2.00;;;;;;;;111853;1250;20427;-31
2023/12/19 01:49:06;;;;;;;;;2.00;2.00;;;;;;;;111721;1265;18720;-31
2023/12/19 01:51:33;;;;;;;;;2.00;2.00;;;;;;;;111922;1250;18798;-30
2023/12/19 01:54:00;;;;;;;;;2.67;2.00;;;;;;;;111792;1264;20479;-31
2023/12/19 01:56:28;;;;;;;;;4.00;4.00;;;;;;;;111930;1264;18654;-30
2023/12/19 01:58:55;;;;;;;;;2.00;2.00;;;;;;;;111871;1257;20672;-31
2023/12/19 02:01:23;;;;;;;;;2.00;2.00;;;;;;;;111885;1265;22074;-31
2023/12/19 02:03:50;;;;;;;;;5.00;4.00;;;;;;;;111812;1250;18869;-30
2023/12/19 02:06:18;;;;;;;;;2.00;2.00;;;;;;;;111909;1250;20356;-31
2023/12/19 02:08:45;;;;;;;;;2.00;2.00;;;;;;;;111835;1264;19079;-31
2023/12/19 02:11:12;;;;;;;;;2.00;2.00;;;;;;;;111903;1264;18995;-31
2023/12/19 02:13:40;;;;;;;;;2.00;2.00;;;;;;;;111895;1264;19629;-31
2023/12/19 02:16:08;;;;;;;;;2.00;2.00;;;;;;;;111818;1264;19017;-30
2023/12/19 02:18:36;;;;;;;;;4.00;2.00;;;;;;;;111853;1264;19670;-31
2023/12/19 02:21:04;;;;;;;;;2.00;2.00;;;;;;;;111956;1264;19596;-31
2023/12/19 02:23:31;;;;;;;;;4.00;4.00;;;;;;;;111806;1250;21444;-31
2023/12/19 02:25:58;;;;;;;;;2.00;2.00;;;;;;;;111912;1264;18703;-31
2023/12/19 02:28:26;;;;;;;;;1.00;1.00;;;;;;;;111847;1250;20013;-30
2023/12/19 02:30:53;;;;;;;;;2.00;2.00;;;;;;;;111979;1256;19032;-31
2023/12/19 02:33:21;;;;;;;;;2.00;2.00;;;;;;;;111975;1263;19637;-31
2023/12/19 02:35:48;;;;;;;;;2.00;2.00;;;;;;;;112039;1248;19615;-31
2023/12/19 02:38:15;;;;;;;;;4.00;4.00;;;;;;;;111986;1263;20307;-31
2023/12/19 02:40:43;;;;;;;;;2.00;2.00;;;;;;;;112040;1263;18732;-31
2023/12/19 02:43:10;;;;;;;;;1.33;1.33;;;;;;;;112004;1250;19692;-30
2023/12/19 02:45:38;;;;;;;;;2.00;2.00;;;;;;;;112032;1249;20307;-30
2023/12/19 02:48:05;;;;;;;;;4.00;4.00;;;;;;;;112017;1250;19548;-31
2023/12/19 02:50:33;;;;;;;;;2.00;2.00;;;;;;;;111996;1264;20033;-31
2023/12/19 02:53:00;;;;;;;;;4.33;2.00;;;;;;;;112013;1263;20535;-31
2023/12/19 02:55:28;;;;;;;;;4.00;2.00;;;;;;;;111947;1256;18958;-31
2023/12/19 02:57:55;;;;;;;;;2.00;2.00;;;;;;;;112032;1264;18591;-31
2023/12/19 03:00:24;;;;;;;;;2.00;2.00;;;;;;;;112055;1249;22139;-30
2023/12/19 03:02:51;;;;;;;;;2.00;2.00;;;;;;;;111998;1264;18788;-31
2023/12/19 03:05:18;;;;;;;;;4.00;4.00;;;;;;;;112009;1264;19617;-31
2023/12/19 03:07:46;;;;;;;;;4.00;4.00;;;;;;;;111990;1263;20368;-30
2023/12/19 03:10:13;;;;;;;;;4.00;3.00;;;;;;;;112053;1249;18587;-31
2023/12/19 03:12:41;;;;;;;;;4.00;3.33;;;;;;;;112016;1264;18542;-31
2023/12/19 03:15:08;;;;;;;;;3.50;2.00;;;;;;;;112047;1248;19293;-31
2023/12/19 03:17:35;;;;;;;;;2.00;2.00;;;;;;;;112039;1264;18854;-31
2023/12/19 03:20:03;;;;;;;;;2.00;2.00;;;;;;;;112066;1249;21755;-30
2023/12/19 03:22:30;;;;;;;;;2.00;2.00;;;;;;;;112032;1263;20375;-31
2023/12/19 03:24:58;;;;;;;;;2.00;2.00;;;;;;;;112018;1249;19451;-31
2023/12/19 03:27:25;;;;;;;;;2.67;2.67;;;;;;;;112060;1248;21321;-31
2023/12/19 03:29:53;;;;;;;;;3.67;2.00;;;;;;;;111954;1264;19064;-31
2023/12/19 03:32:20;;;;;;;;;2.00;2.00;;;;;;;;112028;1249;19663;-31
2023/12/19 03:34:48;;;;;;;;;2.00;2.00;;;;;;;;111938;1264;18640;-31
2023/12/19 03:37:15;;;;;;;;;2.00;2.00;;;;;;;;112048;1263;20419;-31
2023/12/19 03:39:42;;;;;;;;;2.00;2.00;;;;;;;;111896;1264;18755;-31
2023/12/19 03:42:10;;;;;;;;;2.00;2.00;;;;;;;;112046;1263;20695;-31
2023/12/19 03:44:37;;;;;;;;;4.50;2.00;;;;;;;;111951;1249;20393;-31
2023/12/19 03:47:05;;;;;;;;;2.00;2.00;;;;;;;;112055;1263;18772;-31
2023/12/19 03:49:32;;;;;;;;;2.00;2.00;;;;;;;;111938;1263;19616;-31
2023/12/19 03:51:59;;;;;;;;;4.50;4.00;;;;;;;;112035;1263;21829;-32
2023/12/19 03:54:27;;;;;;;;;2.00;2.00;;;;;;;;111954;1263;19470;-30
2023/12/19 03:56:54;;;;;;;;;2.00;2.00;;;;;;;;112043;1263;19651;-30
2023/12/19 03:59:22;;;;;;;;;2.00;2.00;;;;;;;;111939;1264;20507;-30
2023/12/19 04:01:51;;;;;;;;;3.33;3.33;;;;;;;;112026;1263;18612;-31
2023/12/19 04:04:18;;;;;;;;;4.00;4.00;;;;;;;;112009;1248;19656;-31
2023/12/19 04:06:46;;;;;;;;;2.00;2.00;;;;;;;;112003;1263;20807;-31
2023/12/19 04:09:13;;;;;;;;;2.00;2.00;;;;;;;;111934;1249;18813;-30
2023/12/19 04:11:46;;;;;;;;;4.00;2.00;;;;;;;;112017;1263;19626;-31
2023/12/19 04:14:14;;;;;;;;;4.00;2.00;;;;;;;;111983;1249;20328;-31
2023/12/19 04:16:41;;;;;;;;;2.00;2.00;;;;;;;;111996;1263;18881;-31
2023/12/19 04:19:08;;;;;;;;;2.00;2.00;;;;;;;;111904;1264;18453;-31
2023/12/19 04:21:37;;;;;;;;;4.00;4.00;;;;;;;;112024;1249;20381;-31
2023/12/19 04:24:04;;;;;;;;;2.00;2.00;;;;;;;;112031;1263;18534;-31
2023/12/19 04:26:32;;;;;;;;;2.00;2.00;;;;;;;;111980;1249;18428;-31
2023/12/19 04:28:59;;;;;;;;;2.00;2.00;;;;;;;;111909;1263;20341;-31
2023/12/19 04:31:26;;;;;;;;;3.00;3.00;;;;;;;;111983;1250;19037;-31
2023/12/19 04:33:54;;;;;;;;;2.00;2.00;;;;;;;;111956;1249;19818;-31
2023/12/19 04:36:21;;;;;;;;;2.00;2.00;;;;;;;;112002;1264;20313;-30
2023/12/19 04:38:48;;;;;;;;;4.00;4.00;;;;;;;;111950;1249;18726;-31
2023/12/19 04:41:16;;;;;;;;;4.00;4.00;;;;;;;;112017;1263;21397;-30
2023/12/19 04:43:43;;;;;;;;;2.00;2.00;;;;;;;;111970;1256;20320;-30
2023/12/19 04:46:11;;;;;;;;;3.00;3.00;;;;;;;;112050;1263;18834;-30
2023/12/19 04:48:38;;;;;;;;;4.00;2.00;;;;;;;;111959;1263;19532;-30
2023/12/19 04:51:05;;;;;;;;;4.00;2.00;;;;;;;;112030;1263;19060;-31
2023/12/19 04:53:33;;;;;;;;;2.00;2.00;;;;;;;;111980;1263;19505;-30
2023/12/19 04:56:00;;;;;;;;;4.00;4.00;;;;;;;;112080;1249;18744;-30
2023/12/19 04:58:28;;;;;;;;;2.00;2.00;;;;;;;;111972;1264;20603;-30
2023/12/19 05:00:55;;;;;;;;;2.00;2.00;;;;;;;;112035;1263;18842;-31
2023/12/19 05:03:23;;;;;;;;;2.00;2.00;;;;;;;;111929;1264;19564;-31
2023/12/19 05:05:50;;;;;;;;;2.00;2.00;;;;;;;;112037;1264;20374;-31
2023/12/19 05:08:17;;;;;;;;;2.00;2.00;;;;;;;;111919;1264;19664;-31
2023/12/19 05:10:45;;;;;;;;;2.00;2.00;;;;;;;;111953;1250;19662;-31
2023/12/19 05:13:12;;;;;;;;;5.00;4.00;;;;;;;;111921;1249;20402;-31
2023/12/19 05:15:40;;;;;;;;;2.00;2.00;;;;;;;;111970;1264;18671;-31
2023/12/19 05:18:07;;;;;;;;;4.00;2.00;;;;;;;;111944;1264;18451;-31
2023/12/19 05:20:34;;;;;;;;;2.00;2.00;;;;;;;;111969;1256;19290;-31
2023/12/19 05:23:02;;;;;;;;;2.00;2.00;;;;;;;;111933;1264;18620;-31
2023/12/19 05:25:29;;;;;;;;;2.00;2.00;;;;;;;;111951;1248;18570;-31
2023/12/19 05:27:57;;;;;;;;;1.00;1.00;;;;;;;;111964;1264;20344;-30
2023/12/19 05:30:24;;;;;;;;;1.00;1.00;;;;;;;;111951;1256;18729;-30
2023/12/19 05:32:51;;;;;;;;;3.50;2.50;;;;;;;;111921;1264;20669;-31
2023/12/19 05:35:19;;;;;;;;;2.00;2.00;;;;;;;;111968;1256;21054;-31
2023/12/19 05:37:46;;;;;;;;;1.00;1.00;;;;;;;;111966;1264;19120;-31
2023/12/19 05:40:14;;;;;;;;;2.00;2.00;;;;;;;;111962;1264;19484;-31
2023/12/19 05:42:41;;;;;;;;;3.00;2.00;;;;;;;;111998;1249;20472;-31
2023/12/19 05:45:09;;;;;;;;;2.00;2.00;;;;;;;;111975;1263;19057;-31
2023/12/19 05:47:36;;;;;;;;;2.00;2.00;;;;;;;;111948;1250;20791;-31
2023/12/19 05:50:03;;;;;;;;;2.00;2.00;;;;;;;;111995;1250;21560;-30
2023/12/19 05:52:31;;;;;;;;;5.00;2.00;;;;;;;;111929;1264;18738;-30
2023/12/19 05:54:58;;;;;;;;;2.00;2.00;;;;;;;;112022;1249;20981;-31
2023/12/19 05:57:26;;;;;;;;;1.00;1.00;;;;;;;;111933;1249;20401;-30
2023/12/19 05:59:53;;;;;;;;;2.00;2.00;;;;;;;;112022;1249;18486;-30
2023/12/19 06:02:21;;;;;;;;;2.00;2.00;;;;;;;;111987;1249;20143;-31
2023/12/19 06:04:49;;;;;;;;;2.00;2.00;;;;;;;;112040;1263;20368;-31
2023/12/19 06:07:17;;;;;;;;;2.00;2.00;;;;;;;;111955;1263;19827;-31
2023/12/19 06:09:44;;;;;;;;;2.00;2.00;;;;;;;;111983;1249;19619;-30
2023/12/19 06:12:12;;;;;;;;;2.00;2.00;;;;;;;;111982;1249;19501;-31
2023/12/19 06:14:39;;;;;;;;;4.00;4.00;;;;;;;;111972;1263;18827;-30
2023/12/19 06:17:06;;;;;;;;;2.00;2.00;;;;;;;;111940;1248;19696;-31
2023/12/19 06:19:34;;;;;;;;;2.00;2.00;;;;;;;;111981;1263;20303;-30
2023/12/19 06:22:01;;;;;;;;;1.67;1.67;;;;;;;;111947;1263;19059;-30
2023/12/19 06:24:29;;;;;;;;;4.00;2.00;;;;;;;;111980;1263;18554;-31
2023/12/19 06:26:56;;;;;;;;;1.00;1.00;;;;;;;;111962;1249;21485;-31
2023/12/19 06:29:25;;;;;;;;;1.00;1.00;;;;;;;;112009;1263;18931;-30
2023/12/19 06:31:52;;;;;;;;;2.00;2.00;;;;;;;;111904;1248;19759;-31
2023/12/19 06:34:20;;;;;;;;;4.00;4.00;;;;;;;;112040;1256;21232;-30
2023/12/19 06:36:47;;;;;;;;;4.00;4.00;;;;;;;;111940;1263;19655;-30
2023/12/19 06:39:14;;;;;;;;;4.00;4.00;;;;;;;;112037;1250;19619;-31
2023/12/19 06:41:42;;;;;;;;;2.00;2.00;;;;;;;;111938;1263;19036;-30
2023/12/19 06:44:09;;;;;;;;;2.00;2.00;;;;;;;;112044;1263;18952;-31
2023/12/19 06:46:37;;;;;;;;;4.00;3.00;;;;;;;;111929;1263;18512;-30
2023/12/19 06:49:04;;;;;;;;;2.50;2.50;;;;;;;;111970;1264;20296;-31
2023/12/19 06:51:32;;;;;;;;;5.00;5.00;;;;;;;;111927;1264;19184;-31
2023/12/19 06:53:59;;;;;;;;;4.00;4.00;;;;;;;;112019;1264;19529;-30
2023/12/19 06:56:28;;;;;;;;;2.00;2.00;;;;;;;;111934;1264;19343;-31
2023/12/19 06:58:56;;;;;;;;;4.50;4.00;;;;;;;;111973;1249;19715;-31
2023/12/19 07:01:23;;;;;;;;;4.00;4.00;;;;;;;;112053;1264;19728;-31
2023/12/19 07:03:51;;;;;;;;;7.00;6.00;;;;;;;;112025;1248;21608;-30
2023/12/19 07:06:18;;;;;;;;;4.00;4.00;;;;;;;;112042;1264;19322;-30
2023/12/19 07:08:46;;;;;;;;;5.00;5.00;;;;;;;;112025;1264;18830;-31
2023/12/19 07:11:13;;;;;;;;;7.50;5.00;;;;;;;;112049;1264;19030;-31
2023/12/19 07:13:41;;;;;;;;;7.00;7.00;;;;;;;;112019;1264;18770;-30
2023/12/19 07:16:09;;;;;;;;;5.00;5.00;;;;;;;;111981;1249;19634;-31
2023/12/19 07:18:36;;;;;;;;;8.00;7.00;;;;;;;;111997;1264;20538;-31
2023/12/19 07:21:03;;;;;;;;;7.00;7.00;;;;;;;;112034;1264;19520;-31
2023/12/19 07:23:31;;;;;;;;;7.00;7.00;;;;;;;;112011;1264;19605;-30
2023/12/19 07:25:58;;;;;;;;;9.50;7.00;;;;;;;;112010;1250;20355;-31
2023/12/19 07:28:26;;;;;;;;;7.00;7.00;;;;;;;;112027;1264;18595;-29
2023/12/19 07:30:53;;;;;;;;;8.00;8.00;;;;;;;;111994;1250;19660;-31
2023/12/19 07:33:20;;;;;;;;;10.00;8.00;;;;;;;;111839;1264;22113;-31
2023/12/19 07:35:48;;;;;;;;;7.00;7.00;;;;;;;;111813;1264;18779;-31
2023/12/19 07:38:15;;;;;;;;;9.00;8.00;;;;;;;;111925;1264;18462;-31
2023/12/19 07:40:43;;;;;;;;;6.00;6.00;;;;;;;;111687;1265;20243;-30
2023/12/19 07:43:10;;;;;;;;;6.50;6.00;;;;;;;;111887;1265;19576;-31
2023/12/19 07:45:37;;;;;;;;;7.00;6.50;;;;;;;;111694;1265;19553;-31
2023/12/19 07:48:05;;;;;;;;;4.00;4.00;;;;;;;;111935;1264;19397;-30
2023/12/19 07:50:32;;;;;;;;;8.00;8.00;;;;;;;;111674;1265;18759;-30
2023/12/19 07:53:00;;;;;;;;;8.00;8.00;;;;;;;;111951;1264;19563;-31
2023/12/19 07:55:27;;;;;;;;;6.00;6.00;;;;;;;;111713;1250;20706;-31
2023/12/19 07:57:54;;;;;;;;;12.67;12.67;;;;;;;;111960;1264;18706;-31
2023/12/19 08:00:22;;;;;;;;;9.33;8.00;;;;;;;;111787;1257;19944;-30
2023/12/19 08:02:52;;;;;;;;;12.00;12.00;;;;;;;;111989;1264;20395;-31
2023/12/19 08:05:20;;;;;;;;;13.00;12.00;;;;;;;;112064;1264;19386;-31
2023/12/19 08:07:47;;;;;;;;;17.00;14.00;;;;;;;;111842;1265;18713;-30
2023/12/19 08:10:15;;;;;;;;;15.33;15.33;;;;;;;;111951;1264;20282;-31
2023/12/19 08:12:42;;;;;;;;;16.00;14.00;;;;;;;;111719;1257;18842;-31
2023/12/19 08:15:10;;;;;;;;;17.00;15.00;;;;;;;;111953;1250;21122;-31
2023/12/19 08:17:37;;;;;;;;;14.00;12.50;;;;;;;;111704;1250;20301;-30
2023/12/19 08:20:05;;;;;;;;;14.00;13.00;;;;;;;;111943;1264;18599;-31
2023/12/19 08:22:32;;;;;;;;;9.00;9.00;;;;;;;;111736;1265;19773;-31
2023/12/19 08:25:00;;;;;;;;;11.00;10.00;;;;;;;;111952;1264;20263;-31
2023/12/19 08:27:32;;;;;;;;;10.00;10.00;;;;;;;;111725;1250;18859;-31
2023/12/19 08:30:00;;;;;;;;;10.00;9.50;;;;;;;;111958;1250;19726;-31
2023/12/19 08:32:29;;;;;;;;;7.00;7.00;;;;;;;;111702;1264;20316;-30
2023/12/19 08:34:56;;;;;;;;;8.67;8.67;;;;;;;;111829;1265;18745;-31
2023/12/19 08:37:23;;;;;;;;;8.00;8.00;;;;;;;;111722;1257;19605;-31
2023/12/19 08:39:54;;;;;;;;;7.00;7.00;;;;;;;;111825;1264;19032;-31
2023/12/19 08:42:21;;;;;;;;;7.00;7.00;;;;;;;;111791;1265;18994;-31
2023/12/19 08:44:49;;;;;;;;;10.00;7.00;;;;;;;;111691;1250;19563;-31
2023/12/19 08:47:17;;;;;;;;;7.00;7.00;;;;;;;;111812;1251;20406;-31
2023/12/19 08:49:44;;;;;;;;;8.00;5.00;;;;;;;;111764;1265;18612;-31
2023/12/19 08:52:12;;;;;;;;;10.00;8.00;;;;;;;;111765;1264;19211;-31
2023/12/19 08:54:40;;;;;;;;;6.33;5.00;;;;;;;;111703;1265;20195;-31
2023/12/19 08:57:07;;;;;;;;;7.50;6.50;;;;;;;;111722;1257;19783;-31
2023/12/19 08:59:34;;;;;;;;;7.00;7.00;;;;;;;;111806;1249;19637;-31
2023/12/19 09:02:04;;;;;;;;;5.50;5.50;;;;;;;;111734;1250;20548;-30
2023/12/19 09:04:31;;;;;;;;;6.50;5.00;;;;;;;;111805;1264;18826;-31
2023/12/19 09:06:59;;;;;;;;;5.00;5.00;;;;;;;;111718;1250;19670;-30
2023/12/19 09:09:27;;;;;;;;;4.33;4.33;;;;;;;;111794;1250;21531;-32
2023/12/19 09:11:55;;;;;;;;;5.00;5.00;;;;;;;;111719;1265;18995;-30
2023/12/19 09:14:22;;;;;;;;;5.00;5.00;;;;;;;;111696;1257;19840;-30
2023/12/19 09:16:50;;;;;;;;;4.50;4.00;;;;;;;;111915;1265;20376;-30
2023/12/19 09:19:17;;;;;;;;;4.00;4.00;;;;;;;;111701;1251;18533;-31
2023/12/19 09:21:45;;;;;;;;;7.00;5.00;;;;;;;;111769;1265;19750;-30
2023/12/19 09:24:12;;;;;;;;;2.00;2.00;;;;;;;;111689;1264;20437;-30
2023/12/19 09:26:40;;;;;;;;;4.00;2.00;;;;;;;;111725;1263;19757;-31
2023/12/19 09:29:07;;;;;;;;;;;;;;;;;;111773;1264;18694;-31
2023/12/19 09:31:35;;;;;;;;;2.00;2.00;;;;;;;;111710;1264;20438;-30
2023/12/19 09:34:02;;;;;;;;;4.00;4.00;;;;;;;;111728;1257;18866;-30
2023/12/19 09:36:30;;;;;;;;;4.00;2.33;;;;;;;;111697;1265;19618;-30
2023/12/19 09:38:57;;;;;;;;;4.00;4.00;;;;;;;;111688;1265;21360;-30
2023/12/19 09:41:25;;;;;;;;;4.00;4.00;;;;;;;;111723;1265;18864;-31
2023/12/19 09:43:52;;;;;;;;;4.00;2.00;;;;;;;;111917;1264;19689;-30
2023/12/19 09:46:19;;;;;;;;;2.00;2.00;;;;;;;;111862;1250;19010;-30
2023/12/19 09:48:47;;;;;;;;;4.00;2.00;;;;;;;;111761;1265;18659;-30
2023/12/19 09:51:16;;;;;;;;;3.00;3.00;;;;;;;;111810;1265;19584;-31
2023/12/19 09:53:43;;;;;;;;;4.00;4.00;;;;;;;;111794;1264;19081;-30
2023/12/19 09:56:11;;;;;;;;;5.00;4.00;;;;;;;;111874;1264;19481;-30
2023/12/19 09:58:38;;;;;;;;;4.00;4.00;;;;;;;;111824;1265;21366;-30
2023/12/19 10:01:07;;;;;;;;;4.00;4.00;;;;;;;;111793;1264;20305;-31
2023/12/19 10:03:35;;;;;;;;;4.00;2.00;;;;;;;;111747;1265;19468;-30
2023/12/19 10:06:03;;;;;;;;;2.00;2.00;;;;;;;;111683;1265;21031;-30
2023/12/19 10:08:32;;;;;;;;;2.00;2.00;;;;;;;;111723;1250;20480;-30
2023/12/19 10:11:00;;;;;;;;;7.00;5.00;;;;;;;;111750;1257;18932;-31
2023/12/19 10:13:27;;;;;;;;;4.00;4.00;;;;;;;;111703;1265;19980;-31
2023/12/19 10:15:55;;;;;;;;;4.33;4.33;;;;;;;;111771;1250;20813;-31
2023/12/19 10:18:23;;;;;;;;;2.00;2.00;;;;;;;;111702;1250;18852;-31
2023/12/19 10:20:50;;;;;;;;;7.00;5.00;;;;;;;;111733;1250;18490;-30
2023/12/19 10:23:18;;;;;;;;;4.00;4.00;;;;;;;;111755;1257;19046;-31
2023/12/19 10:25:45;;;;;;;;;4.00;2.00;;;;;;;;111732;1264;18730;-30
2023/12/19 10:28:13;;;;;;;;;7.00;4.00;;;;;;;;111937;1264;19595;-30
2023/12/19 10:30:40;;;;;;;;;4.50;4.00;;;;;;;;111840;1249;19044;-30
2023/12/19 10:33:08;;;;;;;;;4.00;4.00;;;;;;;;111798;1250;19718;-30
2023/12/19 10:35:35;;;;;;;;;2.00;2.00;;;;;;;;111784;1264;18721;-30
2023/12/19 10:38:03;;;;;;;;;2.00;2.00;;;;;;;;111714;1265;19062;-30
2023/12/19 10:40:31;;;;;;;;;2.00;2.00;;;;;;;;111782;1265;18891;-29
2023/12/19 10:42:58;;;;;;;;;2.00;2.00;;;;;;;;111872;1249;21443;-30
2023/12/19 10:45:26;;;;;;;;;2.00;2.00;;;;;;;;111729;1265;20785;-30
2023/12/19 10:47:54;;;;;;;;;2.00;2.00;;;;;;;;111805;1265;19655;-30
2023/12/19 10:50:21;;;;;;;;;2.00;2.00;;;;;;;;111719;1264;18469;-30
2023/12/19 10:52:48;;;;;;;;;2.00;2.00;;;;;;;;111820;1265;21497;-30
2023/12/19 10:55:17;;;;;;;;;2.00;2.00;;;;;;;;111755;1265;18900;-30
2023/12/19 10:57:45;;;;;;;;;2.00;2.00;;;;;;;;111849;1250;18331;-30
2023/12/19 11:00:13;;;;;;;;;4.00;4.00;;;;;;;;111694;1265;21690;-30
2023/12/19 11:02:41;;;;;;;;;2.00;2.00;;;;;;;;111763;1265;18731;-29
2023/12/19 11:05:09;;;;;;;;;3.67;3.67;;;;;;;;111882;1265;19733;-30
2023/12/19 11:07:36;;;;;;;;;4.00;4.00;;;;;;;;111765;1249;20357;-30
2023/12/19 11:10:05;;;;;;;;;4.00;2.00;;;;;;;;111856;1250;19161;-30
2023/12/19 11:12:33;;;;;;;;;1.00;1.00;;;;;;;;111815;1250;19829;-30
2023/12/19 11:15:00;;;;;;;;;4.00;4.00;;;;;;;;111843;1250;20372;-30
2023/12/19 11:17:28;;;;;;;;;3.33;3.33;;;;;;;;111878;1265;18827;-30
2023/12/19 11:19:55;;;;;;;;;5.00;4.00;;;;;;;;111854;1249;21034;-30
2023/12/19 11:22:25;;;;;;;;;4.00;2.00;;;;;;;;111841;1264;20257;-30
2023/12/19 11:24:53;;;;;;;;;4.00;2.00;;;;;;;;111800;1257;19680;-30
2023/12/19 11:27:21;;;;;;;;;2.00;2.00;;;;;;;;111933;1256;19547;-30
2023/12/19 11:29:50;;;;;;;;;2.00;2.00;;;;;;;;111838;1250;20598;-30
2023/12/19 11:32:17;;;;;;;;;4.00;2.00;;;;;;;;111700;1250;18691;-30
2023/12/19 11:34:45;;;;;;;;;2.00;2.00;;;;;;;;111915;1264;18483;-30
2023/12/19 11:37:12;;;;;;;;;2.50;2.50;;;;;;;;111683;1250;20439;-30
2023/12/19 11:39:40;;;;;;;;;2.00;2.00;;;;;;;;111948;1264;19052;-30
2023/12/19 11:42:07;;;;;;;;;5.00;4.00;;;;;;;;111728;1264;19644;-30
2023/12/19 11:44:34;;;;;;;;;4.00;4.00;;;;;;;;111924;1250;20438;-30
2023/12/19 11:47:02;;;;;;;;;2.00;2.00;;;;;;;;111774;1265;18660;-30
2023/12/19 11:49:29;;;;;;;;;4.00;2.00;;;;;;;;111888;1265;19505;-30
2023/12/19 11:51:57;;;;;;;;;4.00;3.50;;;;;;;;111744;1265;20334;-30
2023/12/19 11:54:24;;;;;;;;;4.00;2.00;;;;;;;;111841;1264;19000;-29
2023/12/19 11:56:52;;;;;;;;;2.00;2.00;;;;;;;;111795;1264;21510;-30
2023/12/19 11:59:19;;;;;;;;;2.00;2.00;;;;;;;;111756;1264;21564;-29
2023/12/19 12:01:47;;;;;;;;;2.00;2.00;;;;;;;;111802;1250;18949;-29
2023/12/19 12:04:15;;;;;;;;;4.50;4.00;;;;;;;;111968;1264;19929;-29
2023/12/19 12:06:43;;;;;;;;;1.00;1.00;;;;;;;;111701;1265;19419;-30
2023/12/19 12:09:10;;;;;;;;;2.00;2.00;;;;;;;;111906;1250;18765;-30
2023/12/19 12:11:38;;;;;;;;;4.00;2.00;;;;;;;;111674;1264;18603;-30
2023/12/19 12:14:05;;;;;;;;;4.00;4.00;;;;;;;;111909;1264;21642;-30
2023/12/19 12:16:33;;;;;;;;;4.00;4.00;;;;;;;;111677;1264;18810;-30
2023/12/19 12:19:00;;;;;;;;;2.00;2.00;;;;;;;;111937;1264;18653;-30
2023/12/19 12:21:27;;;;;;;;;1.00;1.00;;;;;;;;111694;1249;19378;-30
2023/12/19 12:23:55;;;;;;;;;2.00;2.00;;;;;;;;111973;1265;18697;-30
2023/12/19 12:26:22;;;;;;;;;3.00;3.00;;;;;;;;111742;1256;19734;-30
2023/12/19 12:28:50;;;;;;;;;1.33;1.33;;;;;;;;111979;1264;22162;-30
2023/12/19 12:31:17;;;;;;;;;1.50;1.50;;;;;;;;111750;1264;19664;-30
2023/12/19 12:33:44;;;;;;;;;2.00;2.00;;;;;;;;111925;1264;18552;-30
2023/12/19 12:36:12;;;;;;;;;2.00;2.00;;;;;;;;111763;1265;20577;-30
2023/12/19 12:38:39;;;;;;;;;1.00;1.00;;;;;;;;111882;1250;18818;-30
2023/12/19 12:41:07;;;;;;;;;2.00;2.00;;;;;;;;111817;1265;19248;-30
2023/12/19 12:43:36;;;;;;;;;1.00;1.00;;;;;;;;111935;1250;20741;-30
2023/12/19 12:46:04;;;;;;;;;2.50;2.00;;;;;;;;111810;1264;18618;-30
2023/12/19 12:48:31;;;;;;;;;4.00;2.00;;;;;;;;111822;1264;20283;-30
2023/12/19 12:50:59;;;;;;;;;2.00;2.00;;;;;;;;111734;1264;20357;-30
2023/12/19 12:53:26;;;;;;;;;2.00;2.00;;;;;;;;111824;1265;19497;-30
2023/12/19 12:55:53;;;;;;;;;2.00;2.00;;;;;;;;111712;1265;18588;-30
2023/12/19 12:58:21;;;;;;;;;1.50;1.50;;;;;;;;111848;1264;20423;-30
2023/12/19 13:00:48;;;;;;;;;2.00;2.00;;;;;;;;111734;1265;19536;-30
2023/12/19 13:03:16;;;;;;;;;2.00;2.00;;;;;;;;111886;1264;19527;-30
2023/12/19 13:05:43;;;;;;;;;2.00;2.00;;;;;;;;111727;1265;21281;-30
2023/12/19 13:08:11;;;;;;;;;1.67;1.67;;;;;;;;111896;1265;18925;-30
2023/12/19 13:10:38;;;;;;;;;2.00;2.00;;;;;;;;111751;1264;19753;-30
2023/12/19 13:13:05;;;;;;;;;2.00;2.00;;;;;;;;111916;1251;20381;-30
2023/12/19 13:15:33;;;;;;;;;;;;;;;;;;111701;1264;18836;-30
2023/12/19 13:18:00;;;;;;;;;2.00;2.00;;;;;;;;111937;1264;19272;-30
2023/12/19 13:20:28;;;;;;;;;1.00;1.00;;;;;;;;111735;1264;20308;-30
2023/12/19 13:22:56;;;;;;;;;1.00;1.00;;;;;;;;111916;1264;19511;-31
2023/12/19 13:25:24;;;;;;;;;2.00;2.00;;;;;;;;111738;1264;18388;-30
2023/12/19 13:27:52;;;;;;;;;8.00;8.00;;;;;;;;111855;1264;20316;-30
2023/12/19 13:30:19;;;;;;;;;14.50;13.00;;;;;;;;111985;1249;19894;-30
2023/12/19 13:32:47;;;;;;;;;8.00;7.50;;;;;;;;111959;1263;21694;-30
2023/12/19 13:35:14;;;;;;;;;13.00;12.00;;;;;;;;111934;1264;19061;-30
2023/12/19 13:37:41;;;;;;;;;10.50;10.00;;;;;;;;111996;1249;18948;-30
2023/12/19 13:40:09;;;;;;;;;7.00;7.00;;;;;;;;111814;1264;170627;-30
2023/12/19 13:42:36;;;;;;;;;11.00;8.00;;;;;;;;111975;1264;19038;-30
2023/12/19 13:45:04;;;;;;;;;11.00;8.33;;;;;;;;111940;1249;18854;-30
2023/12/19 13:47:31;;;;;;;;;11.50;11.00;;;;;;;;111983;1249;18485;-30
2023/12/19 13:49:59;;;;;;;;;10.00;8.50;;;;;;;;111951;1264;18977;-30
2023/12/19 13:52:27;;;;;;;;;8.00;8.00;;;;;;;;111923;1264;20825;-30
2023/12/19 13:54:54;;;;;;;;;10.00;8.00;;;;;;;;111942;1248;19566;-30
2023/12/19 13:57:22;;;;;;;;;8.00;7.33;;;;;;;;111973;1264;19177;-30
2023/12/19 13:59:50;;;;;;;;;5.50;5.50;;;;;;;;111953;1264;19760;-30
2023/12/19 14:02:18;;;;;;;;;10.00;10.00;;;;;;;;111948;1249;19720;-30
2023/12/19 14:04:45;;;;;;;;;8.00;6.00;;;;;;;;111986;1250;20764;-30
2023/12/19 14:07:14;;;;;;;;;7.00;7.00;;;;;;;;111926;1264;18706;-31
2023/12/19 14:09:41;;;;;;;;;5.00;5.00;;;;;;;;111968;1263;19585;-30
2023/12/19 14:12:09;;;;;;;;;5.00;5.00;;;;;;;;111990;1248;20899;-30
2023/12/19 14:14:36;;;;;;;;;5.00;4.00;;;;;;;;112015;1249;19080;-30
2023/12/19 14:17:05;;;;;;;;;5.00;5.00;;;;;;;;111985;1264;19759;-30
2023/12/19 14:19:35;;;;;;;;;5.00;5.00;;;;;;;;111989;1264;20725;-30
2023/12/19 14:22:02;;;;;;;;;5.00;5.00;;;;;;;;112002;1264;19284;-30
2023/12/19 14:24:29;;;;;;;;;5.00;5.00;;;;;;;;111976;1264;19736;-30
2023/12/19 14:26:57;;;;;;;;;6.00;5.00;;;;;;;;111928;1249;20407;-30
2023/12/19 14:29:25;;;;;;;;;5.00;5.00;;;;;;;;111955;1264;18848;-30